»·PEaware :: N6515D KPTV-KSNA

N6515D :: KPTV-KSNA

FLIGHT INFORMATION

Flight Status: Arrived
Operator: Privately registered:
United States
More flights under this callsign
Pilot: Charles S. (11412)
Aircraft: Unknown
(DA62)
More flights by this aircraft type
Origin: KPTV Porterville Mun
United States
Destination: KSNA John Wayne-Orange Co
United States
More flights between these airports :: More routes between these airports
Route: +TTE V459 DARTS V186 BAYJY V363 POXKU V8 SLI
File this flight plan on PilotEdge
Remarks:
Altitude:
(Current/Filed)
9,000ft
Speed:
(Current/Filed)
250kts
Departed: 14-Apr-18 08:40 AM
Arrived: 14-Apr-18 09:44 AM
Distance/Time
Traveled:
153nm/1:04
Distance/Time
To Go:
Arrived

Flight Plot

Page will automatically refresh every two minutes.

Flight plan parsing failed; only flown route is shown


Map Options




Map Legend


Flown Route
Filed Route
Departure Airport
Arrival Airport
Navaid (VOR, NDB)
Fix

Horizontal Profiles

Position Reports

Time Latitude Longitude Heading Altitude Ground
Speed
14-Apr-18 08:13 36.029127 -119.059026 129 442ft 0kts
14-Apr-18 08:14 36.029127 -119.059026 129 442ft 0kts
14-Apr-18 08:15 36.029127 -119.059026 129 442ft 0kts
14-Apr-18 08:16 36.029127 -119.059026 129 442ft 0kts
14-Apr-18 08:17 36.029127 -119.059026 129 442ft 0kts
14-Apr-18 08:18 36.029127 -119.059026 129 442ft 0kts
14-Apr-18 08:19 36.029127 -119.059026 129 442ft 0kts
14-Apr-18 08:20 36.029127 -119.059026 129 442ft 0kts
14-Apr-18 08:21 36.029127 -119.059026 129 442ft 0kts
14-Apr-18 08:22 36.029127 -119.059026 129 442ft 0kts
14-Apr-18 08:23 36.029127 -119.059026 129 442ft 0kts
14-Apr-18 08:24 36.029127 -119.059026 129 442ft 0kts
14-Apr-18 08:25 36.029127 -119.059026 129 442ft 0kts
14-Apr-18 08:26 36.029127 -119.059026 129 442ft 0kts
14-Apr-18 08:27 36.029127 -119.059026 129 442ft 0kts
14-Apr-18 08:28 36.029127 -119.059026 129 442ft 0kts
14-Apr-18 08:29 36.029127 -119.059026 129 442ft 0kts
14-Apr-18 08:30 36.029127 -119.059026 129 442ft 0kts
14-Apr-18 08:31 36.029127 -119.059026 129 442ft 0kts
14-Apr-18 08:32 36.029127 -119.059026 129 442ft 0kts
14-Apr-18 08:33 36.029127 -119.059026 129 442ft 0kts
14-Apr-18 08:34 36.029127 -119.059026 129 442ft 0kts
14-Apr-18 08:35 36.029127 -119.059026 129 442ft 0kts
14-Apr-18 08:36 36.028925 -119.058926 191 442ft 10kts
14-Apr-18 08:37 36.031868 -119.063042 313 437ft 24kts
14-Apr-18 08:38 36.034799 -119.066677 319 433ft 21kts
14-Apr-18 08:39 36.030099 -119.063353 133 459ft 88kts
14-Apr-18 08:40 36.008145 -119.053286 163 1400ft 84kts
14-Apr-18 08:41 35.986295 -119.046227 162 2320ft 78kts
14-Apr-18 08:42 35.966400 -119.039388 161 3182ft 72kts
14-Apr-18 08:43 35.941050 -119.030296 161 3827ft 114kts
14-Apr-18 08:44 35.912623 -119.020078 161 4274ft 133kts
14-Apr-18 08:45 35.877279 -119.007110 162 4966ft 134kts
14-Apr-18 08:46 35.844661 -118.995160 162 5602ft 135kts
14-Apr-18 08:47 35.808935 -118.982173 161 6276ft 139kts
14-Apr-18 08:48 35.772981 -118.969005 162 6940ft 144kts
14-Apr-18 08:49 35.734174 -118.954837 162 7634ft 147kts
14-Apr-18 08:50 35.694754 -118.940462 163 8328ft 148kts
14-Apr-18 08:51 35.655619 -118.926220 163 8973ft 153kts
14-Apr-18 08:52 35.611476 -118.910060 164 8997ft 170kts
14-Apr-18 08:53 35.566618 -118.893737 164 8991ft 166kts
14-Apr-18 08:54 35.522225 -118.877584 164 8990ft 168kts
14-Apr-18 08:55 35.477829 -118.861373 164 8989ft 168kts
14-Apr-18 08:56 35.433011 -118.845044 164 8989ft 168kts
14-Apr-18 08:57 35.388877 -118.828993 164 8989ft 168kts
14-Apr-18 08:58 35.344376 -118.812837 164 8989ft 168kts
14-Apr-18 08:59 35.299980 -118.796720 164 8989ft 167kts
14-Apr-18 09:00 35.255253 -118.780512 164 8991ft 167kts
14-Apr-18 09:01 35.210732 -118.764393 164 8993ft 167kts
14-Apr-18 09:02 35.166339 -118.748460 164 8985ft 168kts
14-Apr-18 09:03 35.120166 -118.732083 164 9013ft 177kts
14-Apr-18 09:04 35.072780 -118.715242 164 9020ft 178kts
14-Apr-18 09:05 35.025624 -118.698500 164 9026ft 177kts
14-Apr-18 09:06 34.978243 -118.681549 164 9026ft 178kts
14-Apr-18 09:07 34.931086 -118.664672 163 9026ft 178kts
14-Apr-18 09:08 34.885063 -118.648226 163 9026ft 179kts
14-Apr-18 09:09 34.839381 -118.632345 164 9023ft 179kts
14-Apr-18 09:10 34.791838 -118.615537 164 9016ft 178kts
14-Apr-18 09:11 34.743923 -118.598516 163 9012ft 181kts
14-Apr-18 09:12 34.695879 -118.581380 163 9002ft 181kts
14-Apr-18 09:13 34.649686 -118.557283 154 8983ft 181kts
14-Apr-18 09:14 34.604533 -118.530730 154 9047ft 178kts
14-Apr-18 09:15 34.559717 -118.504514 154 9053ft 181kts
14-Apr-18 09:16 34.514403 -118.477974 154 9052ft 182kts
14-Apr-18 09:17 34.468915 -118.451378 154 9050ft 182kts
14-Apr-18 09:18 34.423571 -118.424961 154 9043ft 182kts
14-Apr-18 09:19 34.377903 -118.398373 154 9033ft 182kts
14-Apr-18 09:20 34.333482 -118.372520 154 9023ft 182kts
14-Apr-18 09:21 34.288398 -118.346308 154 9012ft 182kts
14-Apr-18 09:22 34.243394 -118.320194 155 8734ft 181kts
14-Apr-18 09:23 34.198308 -118.294081 154 8294ft 180kts
14-Apr-18 09:24 34.156031 -118.264572 118 7782ft 177kts
14-Apr-18 09:25 34.137987 -118.210098 108 7036ft 175kts
14-Apr-18 09:26 34.121232 -118.155247 108 6239ft 173kts
14-Apr-18 09:27 34.104765 -118.101356 108 5445ft 171kts
14-Apr-18 09:28 34.089038 -118.050189 109 5015ft 152kts
14-Apr-18 09:29 34.073821 -118.000636 109 5030ft 164kts
14-Apr-18 09:30 34.057754 -117.948423 109 5033ft 166kts
14-Apr-18 09:31 34.041695 -117.896323 109 5035ft 167kts
14-Apr-18 09:32 34.025589 -117.844175 109 5036ft 167kts
14-Apr-18 09:33 34.008102 -117.792633 133 5006ft 169kts
14-Apr-18 09:34 33.962921 -117.784570 178 4462ft 166kts
14-Apr-18 09:35 33.918315 -117.783602 179 4010ft 154kts
14-Apr-18 09:36 33.876268 -117.782628 178 3638ft 155kts
14-Apr-18 09:37 33.834252 -117.781463 178 3127ft 147kts
14-Apr-18 09:38 33.795659 -117.792340 205 2681ft 148kts
14-Apr-18 09:39 33.758639 -117.816003 208 1762ft 150kts
14-Apr-18 09:40 33.727133 -117.835865 208 1106ft 102kts
14-Apr-18 09:41 33.700861 -117.852875 207 521ft 105kts
14-Apr-18 09:42 33.679076 -117.866665 207 61ft 79kts
14-Apr-18 09:43 33.673980 -117.867819 118 60ft 18kts
14-Apr-18 09:44 33.672129 -117.867147 169 60ft 10kts
14-Apr-18 09:45 33.671988 -117.867223 200 60ft 0kts
14-Apr-18 09:46 33.676133 -117.868560 202 60ft 32kts

Navigation Log

Ident Type
Flight plan parsing failed, navigation log unavailable